createdAt,value
2022-11-28T00:00:50.715Z,99167.69
2022-11-28T00:05:57.648Z,99182.69
2022-11-28T00:11:06.628Z,99164.69
2022-11-28T00:16:16.007Z,99160.38
2022-11-28T00:21:21.804Z,99147.13
2022-11-28T00:26:31.682Z,99156.44
2022-11-28T00:31:43.022Z,99160.69
2022-11-28T00:36:50.158Z,99148.44
2022-11-28T00:41:57.879Z,99144.22
2022-11-28T00:47:02.806Z,99125.84
2022-11-28T00:52:08.197Z,99118.69
2022-11-28T00:57:15.694Z,99123.44
2022-11-28T01:02:23.543Z,99128.16
2022-11-28T01:07:28.721Z,99109.28
2022-11-28T01:12:36.325Z,99101.31
2022-11-28T01:17:41.384Z,99100.34
2022-11-28T01:22:46.204Z,99095.72
2022-11-28T01:27:54.941Z,99086.16
2022-11-28T01:32:59.929Z,99078.22
2022-11-28T01:38:05.072Z,99077.50
2022-11-28T01:43:13.046Z,99067.78
2022-11-28T01:48:23.592Z,99054.56
2022-11-28T01:53:30.544Z,99056.38
2022-11-28T01:58:43.341Z,99061.59
2022-11-28T02:03:52.159Z,99065.94
2022-11-28T02:08:58.332Z,99056.25
2022-11-28T02:14:18.575Z,99052.25
2022-11-28T02:19:54.422Z,99053.53
2022-11-28T02:25:23.633Z,99037.16
2022-11-28T02:30:37.081Z,99021.09
2022-11-28T02:35:55.673Z,99027.94
2022-11-28T02:41:05.457Z,99014.25
2022-11-28T02:46:14.946Z,99011.06
2022-11-28T02:51:29.236Z,99011.53
2022-11-28T02:56:34.297Z,99006.28
2022-11-28T03:01:41.102Z,99002.97
2022-11-28T03:06:59.434Z,98993.28
2022-11-28T03:12:18.065Z,98985.41
2022-11-28T03:17:32.504Z,98990.88
2022-11-28T03:22:47.568Z,98981.72
2022-11-28T03:27:57.087Z,98987.84
2022-11-28T03:33:06.066Z,98969.88
2022-11-28T03:38:19.343Z,98971.47
2022-11-28T03:43:31.026Z,98964.16
2022-11-28T03:48:39.852Z,98961.81
2022-11-28T03:53:54.135Z,98953.63
2022-11-28T03:59:05.215Z,98959.06
2022-11-28T04:04:17.275Z,98957.47
2022-11-28T04:09:38.488Z,98939.75
2022-11-28T04:14:50.348Z,98949.28
2022-11-28T04:20:02.500Z,98948.81
2022-11-28T04:25:15.044Z,98952.72
2022-11-28T04:30:20.481Z,98964.16
2022-11-28T04:35:31.724Z,98954.94
2022-11-28T04:40:45.408Z,98958.53
2022-11-28T04:45:54.540Z,98936.50
2022-11-28T04:51:09.567Z,98936.56
2022-11-28T04:56:22.692Z,98944.44
2022-11-28T05:01:33.879Z,98942.69
2022-11-28T05:06:42.502Z,98930.75
2022-11-28T05:11:50.165Z,98925.03
2022-11-28T05:16:55.266Z,98919.22
2022-11-28T05:22:00.548Z,98924.38
2022-11-28T05:27:11.800Z,98914.50
2022-11-28T05:32:18.492Z,98914.94
2022-11-28T05:37:23.658Z,98901.06
2022-11-28T05:42:35.233Z,98895.03
2022-11-28T05:47:40.457Z,98900.34
2022-11-28T05:52:49.037Z,98891.47
2022-11-28T05:57:56.843Z,98896.25
2022-11-28T06:03:02.588Z,98875.16
2022-11-28T06:08:23.587Z,98888.59
2022-11-28T06:13:40.337Z,98871.66
2022-11-28T06:18:46.145Z,98866.09
2022-11-28T06:23:51.277Z,98876.91
2022-11-28T06:29:02.990Z,98865.41
2022-11-28T06:34:09.053Z,98862.31
2022-11-28T06:39:18.256Z,98869.66
2022-11-28T06:44:25.921Z,98862.91
2022-11-28T06:49:33.586Z,98871.94
2022-11-28T06:54:46.461Z,98853.34
2022-11-28T06:59:55.157Z,98863.31
2022-11-28T07:05:01.475Z,98864.28
2022-11-28T07:10:18.626Z,98852.94
2022-11-28T07:15:29.175Z,98845.06
2022-11-28T07:20:41.022Z,98845.63
2022-11-28T07:25:49.036Z,98852.03
2022-11-28T07:31:07.823Z,98838.16
2022-11-28T07:36:19.097Z,98824.63
2022-11-28T07:41:27.041Z,98832.38
2022-11-28T07:46:37.098Z,98829.78
2022-11-28T07:51:45.175Z,98811.41
2022-11-28T08:02:24.250Z,98808.91
2022-11-28T08:07:29.353Z,98808.41
2022-11-28T08:12:40.182Z,98825.25
2022-11-28T08:17:53.503Z,98798.72
2022-11-28T08:22:58.764Z,98805.53
2022-11-28T08:28:06.318Z,98796.41
2022-11-28T08:33:13.969Z,98773.22
2022-11-28T08:38:19.812Z,98767.75
2022-11-28T08:43:24.976Z,98777.81
2022-11-28T08:48:37.938Z,98785.09
2022-11-28T08:53:46.068Z,98797.41
2022-11-28T08:58:56.341Z,98784.25
2022-11-28T09:04:07.378Z,98798.78
2022-11-28T09:09:15.840Z,98802.13
2022-11-28T09:14:24.223Z,98799.53
2022-11-28T09:19:39.463Z,98788.72
2022-11-28T09:24:46.807Z,98790.56
2022-11-28T09:29:52.252Z,98789.31
2022-11-28T09:35:02.498Z,98780.38
2022-11-28T09:40:13.602Z,98785.66
2022-11-28T09:45:22.194Z,98789.06
2022-11-28T09:50:36.405Z,98787.25
2022-11-28T09:55:51.073Z,98769.13
2022-11-28T10:01:10.929Z,98768.06
2022-11-28T10:06:28.782Z,98755.19
2022-11-28T10:11:49.636Z,98751.19
2022-11-28T10:17:04.652Z,98745.69
2022-11-28T10:22:26.160Z,98747.28
2022-11-28T10:27:39.484Z,98740.94
2022-11-28T10:32:55.544Z,98743.88
2022-11-28T10:38:09.676Z,98730.66
2022-11-28T10:43:27.472Z,98738.84
2022-11-28T10:48:43.884Z,98744.09
2022-11-28T10:53:58.815Z,98734.88
2022-11-28T10:59:20.707Z,98731.47
2022-11-28T11:04:31.941Z,98711.16
2022-11-28T11:09:39.804Z,98712.22
2022-11-28T11:14:47.246Z,98710.63
2022-11-28T11:19:52.302Z,98714.34
2022-11-28T11:25:17.413Z,98712.50
2022-11-28T11:30:29.453Z,98708.00
2022-11-28T11:35:39.347Z,98711.44
2022-11-28T11:40:48.360Z,98705.88
2022-11-28T11:46:08.326Z,98709.59
2022-11-28T11:51:26.824Z,98708.53
2022-11-28T11:56:38.860Z,98699.84
2022-11-28T12:01:49.604Z,98702.75
2022-11-28T12:06:59.366Z,98701.94
2022-11-28T12:12:15.140Z,98705.91
2022-11-28T12:17:55.680Z,98697.75
2022-11-28T12:23:17.001Z,98707.22
2022-11-28T12:28:40.930Z,98699.03
2022-11-28T12:33:59.661Z,98700.13
2022-11-28T12:39:31.999Z,98708.81
2022-11-28T12:44:53.778Z,98699.56
2022-11-28T12:50:06.361Z,98692.19
2022-11-28T12:55:28.722Z,98699.03
2022-11-28T13:00:55.453Z,98700.88
2022-11-28T13:06:16.768Z,98696.38
2022-11-28T13:11:41.281Z,98704.84
2022-11-28T13:16:53.284Z,98694.81
2022-11-28T13:22:07.681Z,98704.56
2022-11-28T13:27:23.768Z,98695.63
2022-11-28T13:32:43.908Z,98702.19
2022-11-28T13:43:33.139Z,98699.53
2022-11-28T13:49:20.525Z,98702.75
2022-11-28T13:54:50.206Z,98697.75
2022-11-28T14:00:19.886Z,98700.38
2022-11-28T14:05:41.700Z,98684.53
2022-11-28T14:11:27.407Z,98678.75
2022-11-28T14:16:55.700Z,98689.03
2022-11-28T14:22:22.846Z,98683.25
2022-11-28T14:27:34.560Z,98692.72
2022-11-28T14:32:48.746Z,98694.28
2022-11-28T14:38:03.771Z,98694.84
2022-11-28T14:43:28.186Z,98698.00
2022-11-28T14:48:34.134Z,98685.31
2022-11-28T14:53:58.935Z,98694.81
2022-11-28T14:59:06.444Z,98705.59
2022-11-28T15:04:40.786Z,98701.66
2022-11-28T15:10:07.407Z,98698.22
2022-11-28T15:15:17.627Z,98710.63
2022-11-28T15:20:31.342Z,98706.41
2022-11-28T15:25:41.308Z,98718.00
2022-11-28T15:30:49.465Z,98705.06
2022-11-28T15:36:04.420Z,98703.75
2022-11-28T15:41:12.752Z,98715.34
2022-11-28T15:46:24.505Z,98715.38
2022-11-28T15:51:35.762Z,98709.53
2022-11-28T15:56:58.649Z,98699.28
2022-11-28T16:02:16.055Z,98707.44
2022-11-28T16:07:23.714Z,98710.09
2022-11-28T16:12:36.376Z,98713.50
2022-11-28T16:17:43.431Z,98702.69
2022-11-28T16:22:48.614Z,98716.13
2022-11-28T16:27:59.463Z,98697.97
2022-11-28T16:33:04.460Z,98707.97
2022-11-28T16:38:18.572Z,98700.84
2022-11-28T16:43:33.873Z,98699.56
2022-11-28T16:48:40.801Z,98706.69
2022-11-28T16:53:48.010Z,98699.78
2022-11-28T16:58:57.944Z,98699.56
2022-11-28T17:04:03.249Z,98695.84
2022-11-28T17:09:10.211Z,98698.75
2022-11-28T17:14:18.184Z,98691.09
2022-11-28T17:19:23.373Z,98691.94
2022-11-28T17:24:36.422Z,98696.38
2022-11-28T17:29:44.761Z,98693.47
2022-11-28T17:34:50.417Z,98698.25
2022-11-28T17:40:13.549Z,98697.72
2022-11-28T17:45:25.524Z,98696.94
2022-11-28T17:50:31.360Z,98690.09
2022-11-28T17:55:36.405Z,98689.28
2022-11-28T18:00:44.510Z,98687.94
2022-11-28T18:05:54.703Z,98684.53
2022-11-28T18:11:08.021Z,98684.00
2022-11-28T18:16:17.081Z,98684.81
2022-11-28T18:21:22.996Z,98681.13
2022-11-28T18:26:28.852Z,98681.66
2022-11-28T18:31:37.148Z,98671.09
2022-11-28T18:36:43.841Z,98656.59
2022-11-28T18:41:48.719Z,98665.03
2022-11-28T18:46:56.982Z,98671.09
2022-11-28T18:52:02.466Z,98667.16
2022-11-28T18:57:07.914Z,98675.84
2022-11-28T19:02:16.770Z,98673.47
2022-11-28T19:07:21.924Z,98674.00
2022-11-28T19:12:27.977Z,98675.84
2022-11-28T19:17:37.155Z,98677.41
2022-11-28T19:22:44.285Z,98679.56
2022-11-28T19:27:50.919Z,98673.75
2022-11-28T19:32:58.845Z,98672.16
2022-11-28T19:38:07.153Z,98670.84
2022-11-28T19:43:14.203Z,98678.47
2022-11-28T19:48:22.195Z,98686.38
2022-11-28T19:53:28.526Z,98688.50
2022-11-28T19:58:34.556Z,98695.09
2022-11-28T20:03:45.241Z,98687.97
2022-11-28T20:08:51.579Z,98695.88
2022-11-28T20:13:59.968Z,98696.41
2022-11-28T20:19:09.891Z,98700.09
2022-11-28T20:24:15.592Z,98704.06
2022-11-28T20:29:26.885Z,98710.66
2022-11-28T20:34:35.189Z,98706.41
2022-11-28T20:39:40.905Z,98720.66
2022-11-28T20:44:46.449Z,98715.38
2022-11-28T20:49:55.854Z,98716.94
2022-11-28T20:55:02.560Z,98708.00
2022-11-28T21:00:09.409Z,98707.47
2022-11-28T21:05:17.160Z,98709.59
2022-11-28T21:10:22.291Z,98707.47
2022-11-28T21:15:27.896Z,98702.69
2022-11-28T21:20:35.770Z,98712.22
2022-11-28T21:25:41.468Z,98711.16
2022-11-28T21:30:48.640Z,98707.47
2022-11-28T21:35:57.821Z,98711.69
2022-11-28T21:41:06.612Z,98714.34
2022-11-28T21:46:14.371Z,98717.75
2022-11-28T21:51:23.665Z,98701.41
2022-11-28T21:56:29.004Z,98703.50
2022-11-28T22:01:34.038Z,98712.47
2022-11-28T22:06:41.830Z,98705.63
2022-11-28T22:11:46.798Z,98698.00
2022-11-28T22:16:51.978Z,98700.63
2022-11-28T22:21:59.773Z,98699.31
2022-11-28T22:27:05.281Z,98706.94
2022-11-28T22:32:11.538Z,98722.25
2022-11-28T22:37:19.242Z,98715.38
2022-11-28T22:42:24.506Z,98727.25
2022-11-28T22:47:29.872Z,98729.59
2022-11-28T22:52:38.139Z,98715.38
2022-11-28T22:57:44.380Z,98723.56
2022-11-28T23:02:50.335Z,98721.19
2022-11-28T23:07:58.147Z,98717.50
2022-11-28T23:13:09.078Z,98718.56
2022-11-28T23:18:14.100Z,98713.03
2022-11-28T23:23:21.809Z,98724.88
2022-11-28T23:28:26.843Z,98724.34
2022-11-28T23:33:34.123Z,98722.00
2022-11-28T23:38:41.699Z,98728.03
2022-11-28T23:43:47.001Z,98720.66
2022-11-28T23:48:53.648Z,98721.72
2022-11-28T23:54:01.448Z,98725.41
2022-11-28T23:59:10.325Z,98721.72
